Time;durP1;ratioP1;P1;durP2;ratioP2;P2;SDS_P1;SDS_P2;PMS_P1;PMS_P2;Temp;Humidity;BMP_temperature;BMP_pressure;BME280_temperature;BME280_humidity;BME280_pressure;Samples;Min_cycle;Max_cycle;Signal;HPM_P1;HPM_P2
2023/11/27 00:01:22;;;;;;;6.20;3.63;;;-3.20;99.90;;;;;;4192245;28;20273;-57
2023/11/27 00:03:23;;;;;;;5.43;3.13;;;-3.10;99.90;;;;;;4193659;28;20350;-58
2023/11/27 00:05:24;;;;;;;5.77;3.20;;;-3.10;99.90;;;;;;4195239;28;20273;-57
2023/11/27 00:07:27;;;;;;;4.97;3.23;;;-3.10;99.90;;;;;;4193762;28;20377;-58
2023/11/27 00:09:28;;;;;;;5.37;3.13;;;-3.10;99.90;;;;;;4194963;28;20315;-56
2023/11/27 00:11:29;;;;;;;5.17;2.73;;;-3.10;99.90;;;;;;4194739;28;20269;-57
2023/11/27 00:13:30;;;;;;;5.43;2.47;;;-3.00;99.90;;;;;;4195918;28;20266;-55
2023/11/27 00:15:33;;;;;;;4.40;2.47;;;-3.00;99.90;;;;;;4193663;28;20338;-58
2023/11/27 00:17:34;;;;;;;5.13;2.63;;;-3.00;99.90;;;;;;4195249;28;20603;-58
2023/11/27 00:19:36;;;;;;;5.17;2.80;;;-3.00;99.90;;;;;;4193704;28;20319;-57
2023/11/27 00:21:39;;;;;;;4.03;2.70;;;-3.10;99.90;;;;;;4195460;28;20342;-61
2023/11/27 00:23:40;;;;;;;3.90;2.43;;;-3.10;99.90;;;;;;4194629;28;20266;-60
2023/11/27 00:25:41;;;;;;;5.23;3.00;;;-3.10;99.90;;;;;;4194999;28;20327;-58
2023/11/27 00:27:43;;;;;;;4.43;2.43;;;-3.10;99.90;;;;;;4194025;28;20334;-54
2023/11/27 00:29:44;;;;;;;4.10;2.87;;;-3.10;99.90;;;;;;4195256;28;20326;-55
2023/11/27 00:31:45;;;;;;;3.60;2.30;;;-3.10;99.90;;;;;;4193840;28;20617;-56
2023/11/27 00:33:47;;;;;;;6.27;2.70;;;-3.10;99.90;;;;;;4194493;28;20258;-58
2023/11/27 00:35:48;;;;;;;4.30;2.37;;;-3.10;99.90;;;;;;4194050;28;20394;-55
2023/11/27 00:37:50;;;;;;;3.97;2.50;;;-3.10;99.90;;;;;;4194272;28;20611;-56
2023/11/27 00:39:51;;;;;;;4.03;2.30;;;-3.10;99.90;;;;;;4177469;28;20386;-56
2023/11/27 00:41:52;;;;;;;4.63;2.73;;;-3.10;99.90;;;;;;4193663;28;20319;-58
2023/11/27 00:43:53;;;;;;;6.93;2.80;;;-3.00;99.90;;;;;;4194331;28;20687;-58
2023/11/27 00:45:55;;;;;;;5.27;3.00;;;-3.00;99.90;;;;;;4193533;28;20273;-58
2023/11/27 00:47:59;;;;;;;6.13;2.67;;;-3.00;99.90;;;;;;4194674;28;20354;-58
2023/11/27 00:50:00;;;;;;;4.33;2.67;;;-3.00;99.90;;;;;;4193397;28;20269;-59
2023/11/27 00:52:01;;;;;;;7.67;3.00;;;-2.90;99.90;;;;;;4194814;28;20262;-57
2023/11/27 00:54:03;;;;;;;4.00;3.00;;;-2.90;99.90;;;;;;4193240;28;20266;-59
2023/11/27 00:56:04;;;;;;;6.20;2.93;;;-2.90;99.90;;;;;;4195515;28;20323;-59
2023/11/27 00:58:06;;;;;;;4.00;2.63;;;-2.90;99.90;;;;;;4194066;28;20288;-56
2023/11/27 01:00:10;;;;;;;5.97;3.30;;;-2.80;99.90;;;;;;4193849;28;20273;-58
2023/11/27 01:02:12;;;;;;;7.07;3.17;;;-2.80;99.90;;;;;;4194027;28;20261;-60
2023/11/27 01:04:14;;;;;;;3.87;2.70;;;-2.80;99.90;;;;;;4193976;28;20331;-58
2023/11/27 01:06:15;;;;;;;4.50;2.27;;;-2.70;99.90;;;;;;4194571;28;20269;-59
2023/11/27 01:08:16;;;;;;;4.60;2.47;;;-2.70;99.90;;;;;;4193909;28;20289;-56
2023/11/27 01:10:17;;;;;;;4.23;2.33;;;-2.60;99.90;;;;;;4194359;28;20289;-56
2023/11/27 01:12:18;;;;;;;3.83;2.50;;;-2.60;99.90;;;;;;4192131;28;20281;-58
2023/11/27 01:14:20;;;;;;;3.83;2.10;;;-2.50;99.90;;;;;;4194820;28;20757;-54
2023/11/27 01:16:21;;;;;;;2.23;1.83;;;-2.50;99.90;;;;;;4193765;28;20707;-59
2023/11/27 01:18:23;;;;;;;4.57;2.67;;;-2.40;99.90;;;;;;4194705;28;20331;-57
2023/11/27 01:20:25;;;;;;;4.07;1.67;;;-2.40;99.90;;;;;;4192818;28;20291;-57
2023/11/27 01:22:26;;;;;;;2.87;1.90;;;-2.40;99.90;;;;;;4194680;28;20277;-59
2023/11/27 01:24:28;;;;;;;5.00;2.33;;;-2.40;99.90;;;;;;4193238;28;20315;-58
2023/11/27 01:26:29;;;;;;;2.07;1.70;;;-2.40;99.90;;;;;;4193957;28;20331;-57
2023/11/27 01:28:30;;;;;;;3.60;1.93;;;-2.30;99.90;;;;;;4192887;28;20615;-59
2023/11/27 01:30:32;;;;;;;4.27;1.70;;;-2.30;99.90;;;;;;4194803;28;20265;-59
2023/11/27 01:32:33;;;;;;;3.80;1.67;;;-2.30;99.90;;;;;;4193585;28;20335;-58
2023/11/27 01:34:34;;;;;;;4.70;2.40;;;-2.30;99.90;;;;;;4194327;28;20322;-61
2023/11/27 01:36:36;;;;;;;3.60;1.57;;;-2.30;99.90;;;;;;4193271;28;20274;-58
2023/11/27 01:38:37;;;;;;;3.23;1.80;;;-2.30;99.90;;;;;;4193446;28;20265;-57
2023/11/27 01:40:38;;;;;;;3.10;2.00;;;-2.20;99.90;;;;;;4194650;28;20721;-59
2023/11/27 01:42:40;;;;;;;2.47;1.60;;;-2.20;99.90;;;;;;4192893;28;20266;-57
2023/11/27 01:44:41;;;;;;;3.13;1.90;;;-2.20;99.90;;;;;;4194472;28;20253;-59
2023/11/27 01:46:47;;;;;;;3.17;1.70;;;-2.20;99.90;;;;;;4192960;28;20315;-59
2023/11/27 01:48:53;;;;;;;3.23;2.07;;;-2.20;99.90;;;;;;4194730;28;20442;-59
2023/11/27 01:50:54;;;;;;;3.40;1.90;;;-2.20;99.90;;;;;;4192598;28;20281;-58
2023/11/27 01:52:55;;;;;;;4.63;2.00;;;-2.20;99.90;;;;;;4194519;28;20757;-58
2023/11/27 01:54:58;;;;;;;1.97;1.57;;;-2.20;99.90;;;;;;4192361;28;20359;-56
2023/11/27 01:57:00;;;;;;;3.00;1.77;;;-2.20;99.90;;;;;;4192438;28;20289;-60
2023/11/27 01:59:01;;;;;;;4.43;2.23;;;-2.20;99.90;;;;;;4192299;28;20261;-58
2023/11/27 02:01:03;;;;;;;3.30;1.87;;;-2.20;99.90;;;;;;4194217;28;20682;-58
2023/11/27 02:03:04;;;;;;;4.27;2.03;;;-2.20;99.90;;;;;;4192990;28;20323;-59
2023/11/27 02:05:07;;;;;;;3.03;1.87;;;-2.20;99.90;;;;;;4193814;28;20331;-57
2023/11/27 02:07:11;;;;;;;3.97;2.47;;;-2.20;99.90;;;;;;4192467;28;21188;-59
2023/11/27 02:09:13;;;;;;;5.27;2.07;;;-2.20;99.90;;;;;;4193757;28;20389;-59
2023/11/27 02:11:18;;;;;;;4.03;2.27;;;-2.20;99.90;;;;;;4193144;28;20625;-57
2023/11/27 02:13:19;;;;;;;4.07;2.20;;;-2.20;99.90;;;;;;4191802;28;20277;-59
2023/11/27 02:15:20;;;;;;;4.27;2.40;;;-2.20;99.90;;;;;;4193566;28;20323;-56
2023/11/27 02:17:22;;;;;;;6.80;2.47;;;-2.10;99.90;;;;;;4191609;28;20757;-58
2023/11/27 02:19:23;;;;;;;5.13;2.50;;;-2.20;99.90;;;;;;4193834;28;20331;-55
2023/11/27 02:21:25;;;;;;;10.30;4.57;;;-2.10;99.90;;;;;;4191285;28;20625;-58
2023/11/27 02:23:26;;;;;;;14.07;4.97;;;-2.10;99.90;;;;;;4194039;28;20360;-60
2023/11/27 02:25:27;;;;;;;20.30;7.53;;;-2.20;99.90;;;;;;4190927;28;20262;-59
2023/11/27 02:27:28;;;;;;;18.17;7.10;;;-2.10;99.90;;;;;;4193488;28;20335;-59
2023/11/27 02:29:30;;;;;;;11.87;4.63;;;-2.10;99.90;;;;;;4192318;28;20269;-57
2023/11/27 02:31:31;;;;;;;15.20;5.90;;;-2.10;99.90;;;;;;4193498;28;20261;-57
2023/11/27 02:33:33;;;;;;;10.23;4.50;;;-2.10;99.90;;;;;;4191588;28;20269;-58
2023/11/27 02:35:35;;;;;;;6.70;3.43;;;-2.20;99.90;;;;;;4174902;28;20293;-59
2023/11/27 02:37:36;;;;;;;6.50;3.73;;;-2.20;99.90;;;;;;4191406;28;20269;-55
2023/11/27 02:39:37;;;;;;;7.00;4.37;;;-2.10;99.90;;;;;;4192923;28;20671;-63
2023/11/27 02:41:38;;;;;;;4.03;2.50;;;-2.10;99.90;;;;;;4192931;28;20269;-57
2023/11/27 02:43:40;;;;;;;4.97;3.07;;;-2.10;99.90;;;;;;4192594;28;20273;-55
2023/11/27 02:45:41;;;;;;;4.83;2.53;;;-2.10;99.90;;;;;;4192940;28;20262;-59
2023/11/27 02:47:42;;;;;;;4.53;2.73;;;-2.10;99.90;;;;;;4191453;28;20358;-58
2023/11/27 02:49:43;;;;;;;6.73;3.23;;;-2.10;99.90;;;;;;4192697;28;20291;-57
2023/11/27 02:51:44;;;;;;;5.90;3.07;;;-2.00;99.90;;;;;;4192256;28;20710;-60
2023/11/27 02:53:46;;;;;;;6.20;3.33;;;-2.10;99.90;;;;;;4193136;28;20723;-58
2023/11/27 02:55:48;;;;;;;5.73;3.10;;;-2.10;99.90;;;;;;4191330;28;20269;-58
2023/11/27 02:57:49;;;;;;;3.97;2.80;;;-2.10;99.90;;;;;;4192957;28;20266;-59
2023/11/27 02:59:50;;;;;;;5.60;3.00;;;-2.10;99.90;;;;;;4176125;28;20521;-61
2023/11/27 03:01:52;;;;;;;4.27;2.43;;;-2.10;99.90;;;;;;4192348;28;20265;-58
2023/11/27 03:03:53;;;;;;;4.50;2.90;;;-2.00;99.90;;;;;;4191997;28;20307;-57
2023/11/27 03:05:54;;;;;;;7.50;3.87;;;-2.00;99.90;;;;;;4192876;28;20725;-59
2023/11/27 03:07:56;;;;;;;5.00;2.53;;;-2.00;99.90;;;;;;4192078;28;20301;-59
2023/11/27 03:09:57;;;;;;;3.17;2.00;;;-2.00;99.90;;;;;;4193475;28;20372;-56
2023/11/27 03:12:02;;;;;;;3.40;2.40;;;-2.00;99.90;;;;;;4191757;28;20273;-56
2023/11/27 03:14:03;;;;;;;3.60;2.63;;;-2.00;99.90;;;;;;4191451;28;20281;-55
2023/11/27 03:16:04;;;;;;;4.07;2.33;;;-2.00;99.90;;;;;;4192607;28;20686;-56
2023/11/27 03:18:06;;;;;;;4.63;2.80;;;-2.00;99.90;;;;;;4192381;28;20391;-56
2023/11/27 03:20:09;;;;;;;5.87;2.43;;;-2.00;99.90;;;;;;4192046;28;21839;-59
2023/11/27 03:22:10;;;;;;;3.30;2.33;;;-2.10;99.90;;;;;;4192046;28;20652;-59
2023/11/27 03:24:12;;;;;;;3.97;2.37;;;-2.10;99.90;;;;;;4193111;28;20339;-58
2023/11/27 03:26:13;;;;;;;5.40;2.83;;;-2.10;99.90;;;;;;4192018;28;20629;-56
2023/11/27 03:28:14;;;;;;;3.43;2.33;;;-2.10;99.90;;;;;;4193023;28;20370;-56
2023/11/27 03:30:15;;;;;;;5.20;2.27;;;-2.10;99.90;;;;;;4190183;28;20739;-58
2023/11/27 03:32:17;;;;;;;3.83;2.37;;;-2.20;99.90;;;;;;4192113;28;20274;-55
2023/11/27 03:34:18;;;;;;;3.00;2.17;;;-2.20;99.90;;;;;;4191620;28;20281;-57
2023/11/27 03:36:19;;;;;;;4.53;2.33;;;-2.30;99.90;;;;;;4194078;28;20285;-58
2023/11/27 03:38:21;;;;;;;4.37;2.83;;;-2.30;99.90;;;;;;4194352;28;20269;-55
2023/11/27 03:40:22;;;;;;;6.00;3.10;;;-2.30;99.90;;;;;;4196442;28;20277;-57
2023/11/27 03:42:25;;;;;;;4.10;2.43;;;-2.40;99.90;;;;;;4195349;28;20331;-56
2023/11/27 03:44:26;;;;;;;3.17;2.47;;;-2.40;99.90;;;;;;4196168;28;20262;-59
2023/11/27 03:46:28;;;;;;;4.80;2.40;;;-2.40;99.90;;;;;;4195542;28;20277;-58
2023/11/27 03:48:29;;;;;;;3.30;2.30;;;-2.40;99.90;;;;;;4194089;28;20359;-60
2023/11/27 03:50:30;;;;;;;4.20;2.50;;;-2.40;99.90;;;;;;4194815;28;20265;-55
2023/11/27 03:52:33;;;;;;;11.23;2.70;;;-2.50;99.90;;;;;;4194174;28;20295;-58
2023/11/27 03:54:34;;;;;;;5.30;2.20;;;-2.50;99.90;;;;;;4196406;28;20269;-56
2023/11/27 03:56:35;;;;;;;3.43;2.33;;;-2.50;99.90;;;;;;4194803;28;20311;-57
2023/11/27 03:58:36;;;;;;;4.40;2.67;;;-2.60;99.90;;;;;;4195913;28;20669;-57
2023/11/27 04:00:37;;;;;;;4.53;3.17;;;-2.60;99.90;;;;;;4195194;28;20258;-57
2023/11/27 04:02:39;;;;;;;7.57;3.70;;;-2.60;99.90;;;;;;4195378;28;20388;-57
2023/11/27 04:04:40;;;;;;;7.17;4.23;;;-2.60;99.90;;;;;;4194686;28;20262;-59
2023/11/27 04:06:44;;;;;;;5.93;3.20;;;-2.60;99.90;;;;;;4196267;28;20269;-53
2023/11/27 04:08:45;;;;;;;5.67;3.43;;;-2.60;99.90;;;;;;4194999;28;20829;-56
2023/11/27 04:10:47;;;;;;;5.13;2.93;;;-2.70;99.90;;;;;;4196568;28;20345;-55
2023/11/27 04:12:48;;;;;;;7.40;3.10;;;-2.70;99.90;;;;;;4194556;28;20777;-53
2023/11/27 04:14:49;;;;;;;5.37;2.70;;;-2.70;99.90;;;;;;4195751;28;20281;-58
2023/11/27 04:16:50;;;;;;;6.43;3.17;;;-2.70;99.90;;;;;;4194603;28;20261;-57
2023/11/27 04:18:51;;;;;;;5.30;3.00;;;-2.70;99.90;;;;;;4194913;28;20257;-56
2023/11/27 04:20:53;;;;;;;6.23;3.30;;;-2.70;99.90;;;;;;4194432;28;20281;-59
2023/11/27 04:22:56;;;;;;;4.53;2.57;;;-2.80;99.90;;;;;;4193366;28;20293;-56
2023/11/27 04:24:58;;;;;;;7.40;3.47;;;-2.80;99.90;;;;;;4195477;28;20640;-57
2023/11/27 04:27:00;;;;;;;6.33;3.30;;;-2.80;99.90;;;;;;4193353;28;20266;-56
2023/11/27 04:29:04;;;;;;;7.43;3.47;;;-2.80;99.90;;;;;;4195526;28;20652;-56
2023/11/27 04:31:06;;;;;;;12.27;4.90;;;-2.90;99.90;;;;;;4192614;28;20350;-59
2023/11/27 04:33:07;;;;;;;8.03;4.60;;;-3.00;99.90;;;;;;4194825;28;20695;-56
2023/11/27 04:35:09;;;;;;;11.90;4.50;;;-3.10;99.90;;;;;;4194015;28;20281;-58
2023/11/27 04:37:14;;;;;;;12.23;5.20;;;-3.10;99.90;;;;;;4194794;28;20281;-60
2023/11/27 04:39:18;;;;;;;9.30;4.57;;;-3.20;99.90;;;;;;4194388;28;20323;-58
2023/11/27 04:41:20;;;;;;;9.13;4.70;;;-3.20;99.90;;;;;;4195087;28;20277;-58
2023/11/27 04:43:22;;;;;;;12.53;5.53;;;-3.20;99.90;;;;;;4193373;28;20327;-60
2023/11/27 04:45:24;;;;;;;16.47;5.57;;;-3.20;99.90;;;;;;4195000;28;20676;-61
2023/11/27 04:47:25;;;;;;;9.27;4.50;;;-3.30;99.90;;;;;;4192487;28;20273;-59
2023/11/27 04:49:26;;;;;;;8.50;4.70;;;-3.30;99.90;;;;;;4193950;28;20281;-58
2023/11/27 04:51:28;;;;;;;7.60;4.07;;;-3.30;99.90;;;;;;4194551;28;20253;-58
2023/11/27 04:53:32;;;;;;;9.53;5.10;;;-3.30;99.90;;;;;;4193382;28;20327;-58
2023/11/27 04:55:33;;;;;;;16.20;7.17;;;-3.30;99.90;;;;;;4193851;28;20637;-56
2023/11/27 04:57:35;;;;;;;16.97;6.67;;;-3.40;99.90;;;;;;4193260;28;20741;-59
2023/11/27 04:59:36;;;;;;;13.03;7.03;;;-3.50;99.90;;;;;;4194308;28;20281;-57
2023/11/27 05:01:37;;;;;;;15.93;7.17;;;-3.50;99.90;;;;;;4192830;28;20269;-59
2023/11/27 05:03:38;;;;;;;9.27;5.80;;;-3.60;99.90;;;;;;4194450;28;20664;-57
2023/11/27 05:05:40;;;;;;;9.40;4.87;;;-3.70;99.90;;;;;;4193574;28;20315;-58
2023/11/27 05:07:42;;;;;;;10.03;4.60;;;-3.80;99.90;;;;;;4194288;28;20331;-56
2023/11/27 05:09:43;;;;;;;7.30;3.37;;;-3.80;99.90;;;;;;4193681;28;20293;-58
2023/11/27 05:11:44;;;;;;;5.20;3.07;;;-3.90;99.90;;;;;;4195376;28;20331;-59
2023/11/27 05:13:49;;;;;;;8.43;2.80;;;-3.90;99.90;;;;;;4192089;28;20285;-57
2023/11/27 05:15:50;;;;;;;5.37;2.43;;;-4.00;99.90;;;;;;4194280;28;20277;-58
2023/11/27 05:17:51;;;;;;;5.37;2.77;;;-4.10;99.90;;;;;;4193354;28;20270;-57
2023/11/27 05:19:53;;;;;;;5.67;3.67;;;-4.20;99.90;;;;;;4194558;28;20307;-59
2023/11/27 05:21:54;;;;;;;6.93;3.43;;;-4.20;99.90;;;;;;4193441;28;20640;-58
2023/11/27 05:23:55;;;;;;;4.30;3.00;;;-4.10;99.90;;;;;;4194319;28;20613;-59
2023/11/27 05:25:56;;;;;;;5.40;3.50;;;-4.10;99.90;;;;;;4192867;28;20262;-60
2023/11/27 05:27:57;;;;;;;8.27;3.90;;;-4.10;99.90;;;;;;4193070;28;20273;-60
2023/11/27 05:29:59;;;;;;;7.07;3.43;;;-4.10;99.90;;;;;;4194611;28;20293;-57
2023/11/27 05:32:07;;;;;;;9.10;3.93;;;-4.00;99.90;;;;;;4193000;28;20270;-57
2023/11/27 05:34:08;;;;;;;7.23;4.17;;;-4.00;99.90;;;;;;4191636;28;20281;-58
2023/11/27 05:36:10;;;;;;;7.00;3.53;;;-4.00;99.90;;;;;;4175237;28;20825;-59
2023/11/27 05:38:11;;;;;;;10.13;4.20;;;-4.00;99.90;;;;;;4177685;28;21181;-58
2023/11/27 05:40:13;;;;;;;8.00;3.87;;;-4.00;99.90;;;;;;4176218;28;20316;-56
2023/11/27 05:42:19;;;;;;;11.73;4.20;;;-4.00;99.90;;;;;;4177865;28;20773;-56
2023/11/27 05:44:20;;;;;;;11.30;5.50;;;-4.00;99.90;;;;;;4176703;28;20266;-57
2023/11/27 05:46:21;;;;;;;13.73;7.30;;;-4.00;99.90;;;;;;4185278;28;20312;-58
2023/11/27 05:48:22;;;;;;;12.43;6.40;;;-4.00;99.90;;;;;;4192926;28;20657;-59
2023/11/27 05:50:23;;;;;;;13.87;7.00;;;-4.00;99.90;;;;;;4193067;28;20339;-59
2023/11/27 05:52:26;;;;;;;30.30;14.40;;;-4.00;99.90;;;;;;4192770;28;20842;-61
2023/11/27 05:54:28;;;;;;;18.93;10.03;;;-4.00;99.90;;;;;;4194595;28;20315;-60
2023/11/27 05:56:29;;;;;;;15.97;7.47;;;-4.00;99.90;;;;;;4193679;28;20246;-59
2023/11/27 05:58:30;;;;;;;16.97;7.83;;;-4.00;99.90;;;;;;4193380;28;20799;-60
2023/11/27 06:00:31;;;;;;;23.47;7.93;;;-3.90;99.90;;;;;;4192523;28;20693;-60
2023/11/27 06:02:33;;;;;;;15.50;8.03;;;-3.80;99.90;;;;;;4192865;28;20688;-59
2023/11/27 06:04:34;;;;;;;24.30;7.90;;;-3.60;99.90;;;;;;4192147;28;20285;-55
2023/11/27 06:06:35;;;;;;;21.97;8.77;;;-3.30;99.90;;;;;;4192244;28;20342;-59
2023/11/27 06:08:36;;;;;;;29.00;11.17;;;-3.00;99.90;;;;;;4193488;28;20350;-60
2023/11/27 06:10:37;;;;;;;28.07;10.90;;;-2.80;99.90;;;;;;4193135;28;20269;-57
2023/11/27 06:12:39;;;;;;;32.57;13.17;;;-2.50;99.90;;;;;;4193641;28;20293;-58
2023/11/27 06:14:40;;;;;;;25.03;11.30;;;-2.20;99.90;;;;;;4192697;28;20729;-57
2023/11/27 06:16:41;;;;;;;29.67;13.47;;;-1.90;99.90;;;;;;4194295;28;20807;-59
2023/11/27 06:18:43;;;;;;;31.97;14.70;;;-1.50;99.90;;;;;;4192023;28;20395;-58
2023/11/27 06:20:44;;;;;;;24.63;10.90;;;-1.20;99.90;;;;;;4193954;28;20277;-59
2023/11/27 06:22:45;;;;;;;33.33;11.00;;;-0.80;99.90;;;;;;4192736;28;20281;-58
2023/11/27 06:24:48;;;;;;;26.27;10.27;;;-0.60;99.90;;;;;;4193563;28;20334;-60
2023/11/27 06:26:49;;;;;;;34.27;13.70;;;-0.40;99.90;;;;;;4192457;28;20245;-59
2023/11/27 06:28:50;;;;;;;21.63;10.17;;;-0.30;99.90;;;;;;4192924;28;20350;-59
2023/11/27 06:30:51;;;;;;;19.90;8.97;;;-0.20;99.90;;;;;;4192397;28;20277;-57
2023/11/27 06:32:52;;;;;;;22.83;9.27;;;-0.10;99.90;;;;;;4192296;28;20258;-59
2023/11/27 06:34:54;;;;;;;21.73;10.00;;;0.10;99.90;;;;;;4193543;28;20253;-55
2023/11/27 06:36:56;;;;;;;28.60;10.97;;;0.40;99.90;;;;;;4192495;28;20423;-57
2023/11/27 06:38:57;;;;;;;23.47;12.03;;;0.60;99.90;;;;;;4193743;28;20274;-55
2023/11/27 06:40:58;;;;;;;25.43;12.50;;;0.60;99.90;;;;;;4192345;28;20261;-58
2023/11/27 06:42:59;;;;;;;32.80;13.80;;;0.50;99.90;;;;;;4193154;28;20250;-58
2023/11/27 06:45:00;;;;;;;26.33;13.20;;;0.40;99.90;;;;;;4191940;28;20269;-59
2023/11/27 06:47:02;;;;;;;30.40;14.53;;;0.50;99.90;;;;;;4193202;28;20265;-59
2023/11/27 06:49:05;;;;;;;35.70;15.37;;;0.70;99.90;;;;;;4190981;28;20289;-59
2023/11/27 06:51:08;;;;;;;32.43;16.47;;;0.90;99.90;;;;;;4193508;28;20261;-59
2023/11/27 06:53:09;;;;;;;36.03;16.93;;;1.10;99.90;;;;;;4191361;28;20269;-56
2023/11/27 06:55:10;;;;;;;40.80;17.37;;;1.20;99.90;;;;;;4192810;28;20265;-59
2023/11/27 06:57:12;;;;;;;44.10;17.67;;;1.50;99.90;;;;;;4191444;28;20265;-60
2023/11/27 06:59:13;;;;;;;37.53;16.17;;;1.80;99.90;;;;;;4191879;28;20113;-60
2023/11/27 07:01:16;;;;;;;36.20;14.93;;;2.30;99.90;;;;;;4192037;28;20050;-59
2023/11/27 07:03:17;;;;;;;39.13;16.10;;;2.80;99.90;;;;;;4192344;28;20024;-58
2023/11/27 07:05:18;;;;;;;35.80;16.20;;;2.80;99.90;;;;;;4192162;28;20040;-57
2023/11/27 07:07:19;;;;;;;31.40;14.57;;;2.90;99.90;;;;;;4191619;28;20044;-58
2023/11/27 07:09:23;;;;;;;20.70;11.03;;;3.10;99.90;;;;;;4192645;28;20052;-58
2023/11/27 07:11:25;;;;;;;22.63;11.60;;;3.20;99.90;;;;;;4191630;28;20083;-56
2023/11/27 07:13:26;;;;;;;34.03;15.13;;;3.30;99.90;;;;;;4192396;28;20074;-58
2023/11/27 07:15:28;;;;;;;38.63;15.00;;;3.50;99.90;;;;;;4191240;28;20048;-58
2023/11/27 07:17:29;;;;;;;22.40;13.10;;;3.70;99.90;;;;;;4193703;28;20086;-57
2023/11/27 07:19:30;;;;;;;25.63;13.50;;;3.70;99.90;;;;;;4190809;28;20087;-57
2023/11/27 07:21:31;;;;;;;22.77;11.17;;;3.90;99.90;;;;;;4192815;28;20500;-59
2023/11/27 07:23:32;;;;;;;15.10;7.73;;;4.10;99.90;;;;;;4191158;28;20036;-57
2023/11/27 07:25:34;;;;;;;17.07;7.63;;;3.90;99.90;;;;;;4192396;28;20040;-59
2023/11/27 07:27:35;;;;;;;12.60;7.47;;;3.80;99.90;;;;;;4191626;28;20560;-59
2023/11/27 07:29:36;;;;;;;14.40;8.30;;;3.60;99.90;;;;;;4191745;28;20106;-60
2023/11/27 07:31:37;;;;;;;16.27;8.70;;;3.60;99.90;;;;;;4191383;28;20032;-59
2023/11/27 07:33:38;;;;;;;15.33;9.63;;;3.60;99.90;;;;;;4192284;28;20028;-60
2023/11/27 07:35:41;;;;;;;20.70;9.90;;;3.40;99.90;;;;;;4191377;28;20094;-59
2023/11/27 07:37:42;;;;;;;17.63;8.63;;;3.20;99.90;;;;;;4191930;28;20028;-60
2023/11/27 07:39:44;;;;;;;14.87;8.97;;;3.10;99.90;;;;;;4192863;28;20378;-59
2023/11/27 07:41:46;;;;;;;18.90;9.30;;;2.90;99.90;;;;;;4190910;28;20399;-59
2023/11/27 07:43:47;;;;;;;18.80;9.33;;;3.00;99.90;;;;;;4192939;28;20078;-59
2023/11/27 07:45:48;;;;;;;15.83;7.73;;;3.10;99.90;;;;;;4190485;28;20044;-57
2023/11/27 07:47:49;;;;;;;22.10;8.43;;;3.10;99.90;;;;;;4192970;28;20435;-58
2023/11/27 07:49:51;;;;;;;14.43;7.67;;;3.20;99.90;;;;;;4190994;28;20048;-60
2023/11/27 07:51:57;;;;;;;12.90;7.30;;;3.20;99.90;;;;;;4192707;28;20032;-57
2023/11/27 07:53:58;;;;;;;16.23;7.67;;;3.20;99.90;;;;;;4190902;28;20095;-58
2023/11/27 07:56:00;;;;;;;13.07;7.40;;;2.80;99.90;;;;;;4192017;28;20444;-59
2023/11/27 07:58:02;;;;;;;14.77;6.97;;;2.10;99.90;;;;;;4191538;28;20509;-58
2023/11/27 08:00:07;;;;;;;13.73;7.13;;;1.80;99.90;;;;;;4191697;28;20485;-58
2023/11/27 08:02:08;;;;;;;12.13;6.87;;;1.90;99.90;;;;;;4191573;28;20543;-59
2023/11/27 08:04:09;;;;;;;12.63;6.30;;;2.00;99.90;;;;;;4192057;28;20748;-59
2023/11/27 08:06:10;;;;;;;12.67;6.20;;;1.90;99.90;;;;;;4191893;28;20714;-60
2023/11/27 08:08:11;;;;;;;11.00;6.30;;;2.10;99.90;;;;;;4191308;28;20633;-60
2023/11/27 08:10:15;;;;;;;19.70;6.87;;;2.30;99.90;;;;;;4191812;28;20296;-58
2023/11/27 08:12:16;;;;;;;14.53;7.47;;;2.10;99.90;;;;;;4190214;28;20822;-61
2023/11/27 08:14:18;;;;;;;11.33;5.90;;;2.30;99.90;;;;;;4191863;28;20755;-57
2023/11/27 08:16:19;;;;;;;8.80;4.87;;;2.40;99.90;;;;;;4191355;28;20351;-58
2023/11/27 08:18:20;;;;;;;10.27;5.33;;;2.30;99.90;;;;;;4192008;28;20384;-59
2023/11/27 08:20:28;;;;;;;9.63;5.63;;;2.30;99.90;;;;;;4190521;28;20339;-58
2023/11/27 08:22:29;;;;;;;13.03;6.00;;;2.10;99.90;;;;;;4192803;28;20734;-60
2023/11/27 08:24:32;;;;;;;10.27;5.40;;;1.90;99.90;;;;;;4194083;28;20318;-60
2023/11/27 08:26:39;;;;;;;10.20;4.80;;;1.50;99.90;;;;;;4195829;28;20418;-61
2023/11/27 08:28:40;;;;;;;15.40;6.77;;;1.10;99.90;;;;;;4194210;28;20599;-60
2023/11/27 08:30:42;;;;;;;11.90;5.00;;;0.70;99.90;;;;;;4195377;28;20362;-60
2023/11/27 08:32:43;;;;;;;8.00;4.47;;;0.50;99.90;;;;;;4194222;28;20311;-59
2023/11/27 08:34:44;;;;;;;7.47;4.57;;;0.30;99.90;;;;;;4195056;28;20269;-60
2023/11/27 08:36:45;;;;;;;10.63;4.83;;;0.00;99.90;;;;;;4194404;28;20326;-58
2023/11/27 08:38:47;;;;;;;13.37;5.23;;;-0.20;99.90;;;;;;4195090;28;20258;-57
2023/11/27 08:40:48;;;;;;;7.67;4.67;;;-0.40;99.90;;;;;;4193853;28;20664;-58
2023/11/27 08:42:49;;;;;;;9.90;5.10;;;-0.50;99.90;;;;;;4193808;28;20315;-60
2023/11/27 08:44:50;;;;;;;8.57;4.60;;;-0.60;99.90;;;;;;4194287;28;21033;-55
2023/11/27 08:46:51;;;;;;;9.20;5.07;;;-0.60;99.90;;;;;;4194016;28;20726;-58
2023/11/27 08:48:52;;;;;;;12.10;4.70;;;-0.70;99.90;;;;;;4194598;28;20805;-56
2023/11/27 08:50:53;;;;;;;8.17;5.00;;;-0.70;99.90;;;;;;4194069;28;20332;-57
2023/11/27 08:52:57;;;;;;;9.83;4.83;;;-0.70;99.90;;;;;;4195231;28;21095;-60
2023/11/27 08:54:59;;;;;;;9.77;5.37;;;-0.80;99.90;;;;;;4193221;28;20273;-58
2023/11/27 08:57:00;;;;;;;9.70;4.90;;;-0.80;99.90;;;;;;4194974;28;20346;-58
2023/11/27 08:59:02;;;;;;;14.63;5.57;;;-0.80;99.90;;;;;;4193675;28;20343;-56
2023/11/27 09:01:05;;;;;;;9.10;5.10;;;-0.80;99.90;;;;;;4194492;28;20296;-57
2023/11/27 09:03:06;;;;;;;10.73;5.80;;;-0.80;99.90;;;;;;4192561;28;20266;-60
2023/11/27 09:05:08;;;;;;;11.43;5.57;;;-0.90;99.90;;;;;;4194998;28;20339;-57
2023/11/27 09:07:11;;;;;;;8.93;5.07;;;-0.80;99.90;;;;;;4192506;28;20257;-58
2023/11/27 09:09:13;;;;;;;10.07;5.30;;;-0.80;99.90;;;;;;4194612;28;20265;-59
2023/11/27 09:11:14;;;;;;;14.80;6.63;;;-0.80;99.90;;;;;;4192862;28;20340;-58
2023/11/27 09:13:16;;;;;;;10.17;5.80;;;-0.70;99.90;;;;;;4192786;28;20346;-63
2023/11/27 09:15:18;;;;;;;14.77;6.67;;;-0.70;99.90;;;;;;4176124;28;20266;-60
2023/11/27 09:17:19;;;;;;;10.27;4.93;;;-0.60;99.90;;;;;;4193929;28;20666;-60
2023/11/27 09:19:20;;;;;;;10.40;4.90;;;-0.60;99.90;;;;;;4194861;28;20656;-59
2023/11/27 09:21:21;;;;;;;10.13;4.93;;;-0.50;99.90;;;;;;4193128;28;20747;-58
2023/11/27 09:23:23;;;;;;;14.83;5.60;;;-0.60;99.90;;;;;;4194070;28;20680;-57
2023/11/27 09:25:24;;;;;;;10.23;6.23;;;-0.60;99.90;;;;;;4193374;28;20335;-60
2023/11/27 09:27:25;;;;;;;8.73;5.23;;;-0.70;99.90;;;;;;4194538;28;20343;-59
2023/11/27 09:29:26;;;;;;;8.97;5.27;;;-0.70;99.90;;;;;;4193131;28;20289;-59
2023/11/27 09:31:27;;;;;;;8.40;5.30;;;-0.80;99.90;;;;;;4194160;28;20269;-58
2023/11/27 09:33:28;;;;;;;11.87;5.60;;;-0.80;99.90;;;;;;4192317;28;20316;-61
2023/11/27 09:35:30;;;;;;;9.77;5.93;;;-0.90;99.90;;;;;;4193588;28;20683;-56
2023/11/27 09:37:32;;;;;;;13.43;6.70;;;-0.90;99.90;;;;;;4193277;28;20270;-56
2023/11/27 09:39:34;;;;;;;12.57;6.23;;;-0.80;99.90;;;;;;4192990;28;20765;-59
2023/11/27 09:41:36;;;;;;;9.80;6.07;;;-0.80;99.90;;;;;;4193242;28;20257;-59
2023/11/27 09:43:37;;;;;;;12.90;6.00;;;-0.90;99.90;;;;;;4193023;28;20281;-59
2023/11/27 09:45:39;;;;;;;8.57;4.40;;;-0.90;99.90;;;;;;4193172;28;20270;-59
2023/11/27 09:47:43;;;;;;;8.23;4.70;;;-1.00;99.90;;;;;;4192822;28;20641;-59
2023/11/27 09:49:50;;;;;;;7.33;4.17;;;-1.00;99.90;;;;;;4193739;28;20339;-59
2023/11/27 09:51:58;;;;;;;8.47;4.00;;;-1.00;99.90;;;;;;4192216;28;20342;-59
2023/11/27 09:54:02;;;;;;;5.57;3.20;;;-1.00;99.90;;;;;;4193985;28;20354;-56
2023/11/27 09:56:06;;;;;;;4.47;2.83;;;-1.00;99.90;;;;;;4192217;28;20382;-58
2023/11/27 09:58:10;;;;;;;7.07;3.60;;;-1.00;99.90;;;;;;4192654;28;20277;-55
2023/11/27 10:00:13;;;;;;;5.57;3.23;;;-1.00;99.90;;;;;;4191559;28;20769;-57
2023/11/27 10:02:14;;;;;;;4.13;2.70;;;-0.90;99.90;;;;;;4193692;28;20266;-57
2023/11/27 10:04:15;;;;;;;4.50;2.80;;;-0.90;99.90;;;;;;4192534;28;20278;-58
2023/11/27 10:06:17;;;;;;;6.37;2.90;;;-0.90;99.90;;;;;;4193880;28;20723;-58
2023/11/27 10:08:18;;;;;;;5.27;3.30;;;-0.90;99.90;;;;;;4191693;28;20273;-59
2023/11/27 10:10:26;;;;;;;3.93;2.60;;;-0.90;99.90;;;;;;4193321;28;20305;-58
2023/11/27 10:12:28;;;;;;;3.93;2.73;;;-0.90;99.90;;;;;;4192401;28;20335;-59
2023/11/27 10:14:29;;;;;;;4.93;3.23;;;-0.80;99.90;;;;;;4193784;28;20265;-59
2023/11/27 10:16:32;;;;;;;5.93;3.30;;;-0.80;99.90;;;;;;4192333;28;20262;-60
2023/11/27 10:18:33;;;;;;;4.43;2.53;;;-0.70;99.90;;;;;;4193434;28;20285;-57
2023/11/27 10:20:35;;;;;;;4.03;2.43;;;-0.70;99.90;;;;;;4192569;28;20278;-59
2023/11/27 10:22:36;;;;;;;4.27;2.43;;;-0.70;99.90;;;;;;4193324;28;20273;-57
2023/11/27 10:24:39;;;;;;;6.33;2.70;;;-0.70;99.90;;;;;;4192386;28;20292;-55
2023/11/27 10:26:42;;;;;;;4.07;2.80;;;-0.70;99.90;;;;;;4192227;28;20385;-57
2023/11/27 10:28:45;;;;;;;6.03;3.50;;;-0.70;99.90;;;;;;4192236;28;20331;-59
2023/11/27 10:30:49;;;;;;;9.10;4.03;;;-0.80;99.90;;;;;;4192335;28;20281;-58